TAF KMPV
KMPV 090526Z 0906/1006 00000KT 6SM -SN BR OVC040 TEMPO 0906/0909 2SM -SN BR OVC024 FM091100 31007KT P6SM BKN026 FM091800 31007KT P6SM BKN040 FM092100 32005KT P6SM BKN070=
METAR KMPV
WC KMPV
WS KMPV
WV KMPV